sensor_id;sensor_type;location;lat;lon;timestamp;pressure;altitude;pressure_sealevel;temperature;humidity
20394;BME280;10356;50.544;9.642;2023-07-31T00:00:44;98057.44;;;16.83;79.68
20394;BME280;10356;50.544;9.642;2023-07-31T00:03:13;98056.97;;;16.88;78.29
20394;BME280;10356;50.544;9.642;2023-07-31T00:05:39;98060.75;;;16.93;78.24
20394;BME280;10356;50.544;9.642;2023-07-31T00:08:06;98048.91;;;17.05;77.63
20394;BME280;10356;50.544;9.642;2023-07-31T00:10:32;98038.22;;;17.07;77.69
20394;BME280;10356;50.544;9.642;2023-07-31T00:12:59;98032.13;;;17.06;77.94
20394;BME280;10356;50.544;9.642;2023-07-31T00:15:26;98024.56;;;17.11;78.20
20394;BME280;10356;50.544;9.642;2023-07-31T00:17:52;98013.38;;;17.09;77.48
20394;BME280;10356;50.544;9.642;2023-07-31T00:20:20;98017.31;;;17.05;78.40
20394;BME280;10356;50.544;9.642;2023-07-31T00:22:47;98017.00;;;17.08;78.29
20394;BME280;10356;50.544;9.642;2023-07-31T00:25:13;98012.41;;;17.10;78.06
20394;BME280;10356;50.544;9.642;2023-07-31T00:27:40;98017.66;;;17.10;78.24
20394;BME280;10356;50.544;9.642;2023-07-31T00:30:10;98015.19;;;17.09;78.62
20394;BME280;10356;50.544;9.642;2023-07-31T00:32:37;98010.41;;;17.12;78.56
20394;BME280;10356;50.544;9.642;2023-07-31T00:35:04;98014.84;;;17.04;79.56
20394;BME280;10356;50.544;9.642;2023-07-31T00:37:32;98011.06;;;17.06;79.29
20394;BME280;10356;50.544;9.642;2023-07-31T00:39:58;98013.38;;;17.01;79.16
20394;BME280;10356;50.544;9.642;2023-07-31T00:42:25;98017.50;;;16.96;81.13
20394;BME280;10356;50.544;9.642;2023-07-31T00:44:52;98019.81;;;16.99;80.38
20394;BME280;10356;50.544;9.642;2023-07-31T00:47:18;98021.59;;;16.98;80.74
20394;BME280;10356;50.544;9.642;2023-07-31T00:49:45;98021.59;;;16.98;81.44
20394;BME280;10356;50.544;9.642;2023-07-31T00:52:12;98019.28;;;16.95;82.31
20394;BME280;10356;50.544;9.642;2023-07-31T00:54:40;98008.28;;;16.92;83.04
20394;BME280;10356;50.544;9.642;2023-07-31T00:57:07;98019.28;;;16.87;84.40
20394;BME280;10356;50.544;9.642;2023-07-31T00:59:33;98020.59;;;16.83;85.61
20394;BME280;10356;50.544;9.642;2023-07-31T01:02:00;98009.09;;;16.76;86.59
20394;BME280;10356;50.544;9.642;2023-07-31T01:04:27;98003.66;;;16.69;87.56
20394;BME280;10356;50.544;9.642;2023-07-31T01:06:56;98012.03;;;16.65;88.48
20394;BME280;10356;50.544;9.642;2023-07-31T01:09:35;98007.03;;;16.46;89.99
20394;BME280;10356;50.544;9.642;2023-07-31T01:12:06;98000.47;;;16.42;90.94
20394;BME280;10356;50.544;9.642;2023-07-31T01:14:33;97998.81;;;16.41;91.46
20394;BME280;10356;50.544;9.642;2023-07-31T01:17:00;98008.47;;;16.32;92.54
20394;BME280;10356;50.544;9.642;2023-07-31T01:19:27;97997.63;;;16.27;93.50
20394;BME280;10356;50.544;9.642;2023-07-31T01:22:10;97995.81;;;16.20;93.84
20394;BME280;10356;50.544;9.642;2023-07-31T01:24:42;97989.56;;;16.21;94.08
20394;BME280;10356;50.544;9.642;2023-07-31T01:27:21;97995.47;;;16.23;93.67
20394;BME280;10356;50.544;9.642;2023-07-31T01:29:55;97988.22;;;16.17;94.71
20394;BME280;10356;50.544;9.642;2023-07-31T01:32:23;97993.81;;;16.14;95.71
20394;BME280;10356;50.544;9.642;2023-07-31T01:34:52;97981.97;;;16.10;95.70
20394;BME280;10356;50.544;9.642;2023-07-31T01:37:19;97985.28;;;16.12;95.65
20394;BME280;10356;50.544;9.642;2023-07-31T01:39:46;97984.28;;;16.13;96.04
20394;BME280;10356;50.544;9.642;2023-07-31T01:42:12;97980.66;;;16.14;95.99
20394;BME280;10356;50.544;9.642;2023-07-31T01:44:40;97980.31;;;16.09;95.90
20394;BME280;10356;50.544;9.642;2023-07-31T01:47:07;97980.13;;;16.02;96.23
20394;BME280;10356;50.544;9.642;2023-07-31T01:49:33;97973.06;;;16.03;96.11
20394;BME280;10356;50.544;9.642;2023-07-31T01:52:00;97970.28;;;16.04;96.31
20394;BME280;10356;50.544;9.642;2023-07-31T01:54:26;97969.78;;;16.01;96.99
20394;BME280;10356;50.544;9.642;2023-07-31T01:56:53;97964.84;;;15.98;97.00
20394;BME280;10356;50.544;9.642;2023-07-31T01:59:19;97971.75;;;15.98;96.37
20394;BME280;10356;50.544;9.642;2023-07-31T02:01:47;97967.13;;;15.92;97.26
20394;BME280;10356;50.544;9.642;2023-07-31T02:04:13;97964.50;;;15.92;97.43
20394;BME280;10356;50.544;9.642;2023-07-31T02:06:40;97953.00;;;15.93;97.56
20394;BME280;10356;50.544;9.642;2023-07-31T02:09:06;97951.69;;;15.89;98.11
20394;BME280;10356;50.544;9.642;2023-07-31T02:11:33;97952.31;;;15.83;98.59
20394;BME280;10356;50.544;9.642;2023-07-31T02:13:59;97945.09;;;15.85;97.74
20394;BME280;10356;50.544;9.642;2023-07-31T02:16:26;97957.75;;;15.90;97.38
20394;BME280;10356;50.544;9.642;2023-07-31T02:18:53;97953.16;;;15.92;96.74
20394;BME280;10356;50.544;9.642;2023-07-31T02:21:20;97959.25;;;15.92;97.23
20394;BME280;10356;50.544;9.642;2023-07-31T02:23:46;97956.44;;;15.94;96.74
20394;BME280;10356;50.544;9.642;2023-07-31T02:26:13;97950.22;;;15.95;96.23
20394;BME280;10356;50.544;9.642;2023-07-31T02:28:39;97958.41;;;15.92;96.46
20394;BME280;10356;50.544;9.642;2023-07-31T02:31:08;97945.63;;;15.97;96.31
20394;BME280;10356;50.544;9.642;2023-07-31T02:33:34;97941.69;;;16.01;95.95
20394;BME280;10356;50.544;9.642;2023-07-31T02:36:02;97948.41;;;15.95;95.94
20394;BME280;10356;50.544;9.642;2023-07-31T02:38:29;97955.97;;;15.98;96.67
20394;BME280;10356;50.544;9.642;2023-07-31T02:40:55;97941.88;;;16.00;96.40
20394;BME280;10356;50.544;9.642;2023-07-31T02:43:22;97951.72;;;16.06;95.90
20394;BME280;10356;50.544;9.642;2023-07-31T02:45:51;97940.88;;;16.09;96.07
20394;BME280;10356;50.544;9.642;2023-07-31T02:48:17;97943.19;;;16.04;96.56
20394;BME280;10356;50.544;9.642;2023-07-31T02:50:44;97938.91;;;16.03;96.23
20394;BME280;10356;50.544;9.642;2023-07-31T02:53:12;97942.19;;;16.05;95.79
20394;BME280;10356;50.544;9.642;2023-07-31T02:55:38;97940.22;;;16.07;95.10
20394;BME280;10356;50.544;9.642;2023-07-31T02:58:05;97940.06;;;16.08;95.68
20394;BME280;10356;50.544;9.642;2023-07-31T03:00:31;97941.22;;;16.06;95.07
20394;BME280;10356;50.544;9.642;2023-07-31T03:02:57;97943.03;;;16.05;94.86
20394;BME280;10356;50.544;9.642;2023-07-31T03:05:24;97941.06;;;16.15;93.95
20394;BME280;10356;50.544;9.642;2023-07-31T03:07:50;97937.63;;;16.23;92.91
20394;BME280;10356;50.544;9.642;2023-07-31T03:10:18;97930.09;;;16.20;92.64
20394;BME280;10356;50.544;9.642;2023-07-31T03:12:46;97938.91;;;16.11;93.26
20394;BME280;10356;50.544;9.642;2023-07-31T03:15:13;97936.00;;;16.14;93.42
20394;BME280;10356;50.544;9.642;2023-07-31T03:17:39;97941.91;;;16.16;92.66
20394;BME280;10356;50.544;9.642;2023-07-31T03:20:07;97934.69;;;16.18;92.60
20394;BME280;10356;50.544;9.642;2023-07-31T03:22:33;97938.94;;;16.19;93.00
20394;BME280;10356;50.544;9.642;2023-07-31T03:25:00;97945.03;;;16.27;92.04
20394;BME280;10356;50.544;9.642;2023-07-31T03:27:28;97939.28;;;16.24;92.23
20394;BME280;10356;50.544;9.642;2023-07-31T03:29:55;97941.91;;;16.16;92.57
20394;BME280;10356;50.544;9.642;2023-07-31T03:32:21;97933.03;;;16.25;92.03
20394;BME280;10356;50.544;9.642;2023-07-31T03:34:49;97935.34;;;16.28;92.00
20394;BME280;10356;50.544;9.642;2023-07-31T03:37:15;97928.78;;;16.32;91.59
20394;BME280;10356;50.544;9.642;2023-07-31T03:39:42;97935.66;;;16.25;92.00
20394;BME280;10356;50.544;9.642;2023-07-31T03:42:08;97928.78;;;16.24;91.66
20394;BME280;10356;50.544;9.642;2023-07-31T03:44:36;97940.63;;;16.28;91.46
20394;BME280;10356;50.544;9.642;2023-07-31T03:47:03;97935.34;;;16.28;92.72
20394;BME280;10356;50.544;9.642;2023-07-31T03:49:29;97922.53;;;16.25;93.50
20394;BME280;10356;50.544;9.642;2023-07-31T03:51:56;97922.19;;;16.20;93.58
20394;BME280;10356;50.544;9.642;2023-07-31T03:54:22;97911.03;;;16.26;92.16
20394;BME280;10356;50.544;9.642;2023-07-31T03:56:49;97909.19;;;16.18;92.72
20394;BME280;10356;50.544;9.642;2023-07-31T03:59:15;97913.66;;;16.18;92.61
20394;BME280;10356;50.544;9.642;2023-07-31T04:01:43;97912.00;;;16.17;92.73
20394;BME280;10356;50.544;9.642;2023-07-31T04:04:09;97914.63;;;16.17;92.40
20394;BME280;10356;50.544;9.642;2023-07-31T04:06:36;97923.19;;;16.27;91.54
20394;BME280;10356;50.544;9.642;2023-07-31T04:09:02;97914.81;;;16.23;91.41
20394;BME280;10356;50.544;9.642;2023-07-31T04:11:29;97913.31;;;16.29;90.96
20394;BME280;10356;50.544;9.642;2023-07-31T04:13:55;97912.34;;;16.30;91.12
20394;BME280;10356;50.544;9.642;2023-07-31T04:16:22;97906.75;;;16.33;90.46
20394;BME280;10356;50.544;9.642;2023-07-31T04:18:50;97903.94;;;16.34;90.48
20394;BME280;10356;50.544;9.642;2023-07-31T04:21:16;97901.97;;;16.44;90.08
20394;BME280;10356;50.544;9.642;2023-07-31T04:23:42;97902.81;;;16.45;89.61
20394;BME280;10356;50.544;9.642;2023-07-31T04:26:09;97894.09;;;16.44;89.80
20394;BME280;10356;50.544;9.642;2023-07-31T04:28:35;97894.63;;;16.48;89.91
20394;BME280;10356;50.544;9.642;2023-07-31T04:31:02;97899.88;;;16.48;89.91
20394;BME280;10356;50.544;9.642;2023-07-31T04:33:29;97896.28;;;16.49;90.21
20394;BME280;10356;50.544;9.642;2023-07-31T04:35:57;97899.88;;;16.48;90.12
20394;BME280;10356;50.544;9.642;2023-07-31T04:38:23;97888.72;;;16.54;89.85
20394;BME280;10356;50.544;9.642;2023-07-31T04:40:50;97895.63;;;16.55;89.54
20394;BME280;10356;50.544;9.642;2023-07-31T04:43:16;97902.38;;;16.57;88.43
20394;BME280;10356;50.544;9.642;2023-07-31T04:45:45;97893.81;;;16.63;88.19
20394;BME280;10356;50.544;9.642;2023-07-31T04:48:12;97900.88;;;16.63;88.44
20394;BME280;10356;50.544;9.642;2023-07-31T04:50:39;97898.25;;;16.63;88.67
20394;BME280;10356;50.544;9.642;2023-07-31T04:53:07;97901.88;;;16.62;88.50
20394;BME280;10356;50.544;9.642;2023-07-31T04:55:33;97901.69;;;16.71;88.02
20394;BME280;10356;50.544;9.642;2023-07-31T04:58:00;97884.41;;;16.77;87.68
20394;BME280;10356;50.544;9.642;2023-07-31T05:00:26;97892.81;;;16.81;86.55
20394;BME280;10356;50.544;9.642;2023-07-31T05:02:53;97882.41;;;16.95;86.00
20394;BME280;10356;50.544;9.642;2023-07-31T05:05:19;97892.66;;;16.90;86.57
20394;BME280;10356;50.544;9.642;2023-07-31T05:07:46;97890.97;;;16.89;86.87
20394;BME280;10356;50.544;9.642;2023-07-31T05:10:14;97892.94;;;16.95;87.30
20394;BME280;10356;50.544;9.642;2023-07-31T05:12:40;97891.16;;;16.96;86.18
20394;BME280;10356;50.544;9.642;2023-07-31T05:15:07;97893.94;;;17.02;86.59
20394;BME280;10356;50.544;9.642;2023-07-31T05:17:34;97903.44;;;17.11;86.19
20394;BME280;10356;50.544;9.642;2023-07-31T05:20:00;97896.38;;;17.12;85.87
20394;BME280;10356;50.544;9.642;2023-07-31T05:22:27;97892.59;;;17.14;85.65
20394;BME280;10356;50.544;9.642;2023-07-31T05:24:53;97900.00;;;17.11;85.66
20394;BME280;10356;50.544;9.642;2023-07-31T05:27:21;97898.53;;;17.08;86.09
20394;BME280;10356;50.544;9.642;2023-07-31T05:29:48;97889.63;;;17.09;85.90
20394;BME280;10356;50.544;9.642;2023-07-31T05:32:14;97895.72;;;17.10;85.82
20394;BME280;10356;50.544;9.642;2023-07-31T05:34:41;97893.09;;;17.02;87.25
20394;BME280;10356;50.544;9.642;2023-07-31T05:37:07;97906.44;;;17.00;87.31
20394;BME280;10356;50.544;9.642;2023-07-31T05:39:34;97902.13;;;17.07;87.22
20394;BME280;10356;50.544;9.642;2023-07-31T05:42:00;97897.53;;;17.09;86.89
20394;BME280;10356;50.544;9.642;2023-07-31T05:44:28;97894.91;;;17.09;87.53
20394;BME280;10356;50.544;9.642;2023-07-31T05:46:55;97902.94;;;17.16;87.12
20394;BME280;10356;50.544;9.642;2023-07-31T05:49:21;97899.84;;;17.12;87.78
20394;BME280;10356;50.544;9.642;2023-07-31T05:51:48;97898.53;;;17.08;87.98
20394;BME280;10356;50.544;9.642;2023-07-31T05:54:14;97895.53;;;17.11;87.97
20394;BME280;10356;50.544;9.642;2023-07-31T05:56:41;97893.25;;;17.08;87.86
20394;BME280;10356;50.544;9.642;2023-07-31T05:59:08;97884.72;;;17.06;87.72
20394;BME280;10356;50.544;9.642;2023-07-31T06:01:36;97885.34;;;17.16;87.56
20394;BME280;10356;50.544;9.642;2023-07-31T06:04:03;97893.91;;;17.18;87.10
20394;BME280;10356;50.544;9.642;2023-07-31T06:06:29;97893.06;;;17.18;87.13
20394;BME280;10356;50.544;9.642;2023-07-31T06:08:56;97897.47;;;17.25;87.20
20394;BME280;10356;50.544;9.642;2023-07-31T06:11:22;97897.84;;;17.22;87.28
20394;BME280;10356;50.544;9.642;2023-07-31T06:13:49;97898.00;;;17.21;87.38
20394;BME280;10356;50.544;9.642;2023-07-31T06:16:16;97903.75;;;17.24;86.75
20394;BME280;10356;50.544;9.642;2023-07-31T06:18:44;97894.56;;;17.20;86.70
20394;BME280;10356;50.544;9.642;2023-07-31T06:21:10;97895.19;;;17.22;86.47
20394;BME280;10356;50.544;9.642;2023-07-31T06:23:37;97893.53;;;17.29;86.27
20394;BME280;10356;50.544;9.642;2023-07-31T06:26:03;97895.84;;;17.32;85.55
20394;BME280;10356;50.544;9.642;2023-07-31T06:28:31;97903.22;;;17.37;85.89
20394;BME280;10356;50.544;9.642;2023-07-31T06:30:58;97894.78;;;17.41;85.93
20394;BME280;10356;50.544;9.642;2023-07-31T06:33:24;97897.75;;;17.46;85.17
20394;BME280;10356;50.544;9.642;2023-07-31T06:35:52;97907.19;;;17.49;86.02
20394;BME280;10356;50.544;9.642;2023-07-31T06:38:24;97907.19;;;17.49;84.39
20394;BME280;10356;50.544;9.642;2023-07-31T06:40:51;97899.28;;;17.49;84.36
20394;BME280;10356;50.544;9.642;2023-07-31T06:43:18;97907.66;;;17.52;84.48
20394;BME280;10356;50.544;9.642;2023-07-31T06:45:44;97911.75;;;17.55;84.89
20394;BME280;10356;50.544;9.642;2023-07-31T06:48:11;97904.34;;;17.58;84.50
20394;BME280;10356;50.544;9.642;2023-07-31T06:50:38;97905.97;;;17.59;84.73
20394;BME280;10356;50.544;9.642;2023-07-31T06:53:06;97903.00;;;17.63;84.17
20394;BME280;10356;50.544;9.642;2023-07-31T06:55:32;97896.06;;;17.61;84.50
20394;BME280;10356;50.544;9.642;2023-07-31T06:57:59;97892.44;;;17.63;84.41
20394;BME280;10356;50.544;9.642;2023-07-31T07:00:26;97895.75;;;17.65;84.12
20394;BME280;10356;50.544;9.642;2023-07-31T07:02:52;97897.97;;;17.76;83.54
20394;BME280;10356;50.544;9.642;2023-07-31T07:05:19;97891.09;;;17.75;83.40
20394;BME280;10356;50.544;9.642;2023-07-31T07:07:45;97893.84;;;17.81;83.12
20394;BME280;10356;50.544;9.642;2023-07-31T07:10:13;97895.81;;;17.87;82.48
20394;BME280;10356;50.544;9.642;2023-07-31T07:12:40;97894.47;;;17.91;81.66
20394;BME280;10356;50.544;9.642;2023-07-31T07:15:06;97901.53;;;17.91;80.96
20394;BME280;10356;50.544;9.642;2023-07-31T07:17:33;97892.81;;;17.90;81.22
20394;BME280;10356;50.544;9.642;2023-07-31T07:20:00;97892.94;;;17.97;81.35
20394;BME280;10356;50.544;9.642;2023-07-31T07:22:28;97891.25;;;18.04;80.65
20394;BME280;10356;50.544;9.642;2023-07-31T07:24:55;97889.97;;;18.22;79.00
20394;BME280;10356;50.544;9.642;2023-07-31T07:27:23;97881.59;;;18.41;79.86
20394;BME280;10356;50.544;9.642;2023-07-31T07:29:50;97878.94;;;18.50;77.47
20394;BME280;10356;50.544;9.642;2023-07-31T07:32:17;97882.84;;;18.54;77.48
20394;BME280;10356;50.544;9.642;2023-07-31T07:34:44;97884.59;;;18.61;77.43
20394;BME280;10356;50.544;9.642;2023-07-31T07:37:11;97887.72;;;18.79;76.36
20394;BME280;10356;50.544;9.642;2023-07-31T07:39:37;97901.56;;;18.81;76.04
20394;BME280;10356;50.544;9.642;2023-07-31T07:42:04;97890.09;;;18.74;75.33
20394;BME280;10356;50.544;9.642;2023-07-31T07:44:32;97899.56;;;18.83;75.79
20394;BME280;10356;50.544;9.642;2023-07-31T07:46:59;97888.28;;;18.89;75.85
20394;BME280;10356;50.544;9.642;2023-07-31T07:49:25;97875.03;;;18.97;75.03
20394;BME280;10356;50.544;9.642;2023-07-31T07:51:52;97872.56;;;19.25;75.28
20394;BME280;10356;50.544;9.642;2023-07-31T07:54:18;97875.00;;;19.35;75.68
20394;BME280;10356;50.544;9.642;2023-07-31T07:56:46;97871.81;;;19.39;74.09
20394;BME280;10356;50.544;9.642;2023-07-31T07:59:13;97876.22;;;19.24;74.01
20394;BME280;10356;50.544;9.642;2023-07-31T08:01:41;97873.56;;;19.09;75.33
20394;BME280;10356;50.544;9.642;2023-07-31T08:04:07;97871.22;;;19.14;74.97
20394;BME280;10356;50.544;9.642;2023-07-31T08:06:34;97873.22;;;19.12;75.19
20394;BME280;10356;50.544;9.642;2023-07-31T08:09:00;97876.03;;;19.11;74.96
20394;BME280;10356;50.544;9.642;2023-07-31T08:11:30;97869.22;;;19.16;75.18
20394;BME280;10356;50.544;9.642;2023-07-31T08:13:57;97868.50;;;19.22;74.67
20394;BME280;10356;50.544;9.642;2023-07-31T08:16:23;97865.75;;;19.31;73.99
20394;BME280;10356;50.544;9.642;2023-07-31T08:18:51;97873.72;;;19.45;74.17
20394;BME280;10356;50.544;9.642;2023-07-31T08:21:17;97865.69;;;19.39;74.28
20394;BME280;10356;50.544;9.642;2023-07-31T08:23:44;97872.66;;;19.32;74.79
20394;BME280;10356;50.544;9.642;2023-07-31T08:26:15;97874.25;;;19.41;74.06
20394;BME280;10356;50.544;9.642;2023-07-31T08:28:41;97874.16;;;19.49;75.07
20394;BME280;10356;50.544;9.642;2023-07-31T08:31:08;97863.91;;;19.75;74.36
20394;BME280;10356;50.544;9.642;2023-07-31T08:33:34;97865.50;;;19.90;72.62
20394;BME280;10356;50.544;9.642;2023-07-31T08:36:02;97867.28;;;19.83;72.24
20394;BME280;10356;50.544;9.642;2023-07-31T08:38:29;97864.44;;;19.85;72.66
20394;BME280;10356;50.544;9.642;2023-07-31T08:40:56;97854.22;;;19.82;72.49
20394;BME280;10356;50.544;9.642;2023-07-31T08:43:25;97860.44;;;19.74;72.71
20394;BME280;10356;50.544;9.642;2023-07-31T08:45:52;97855.69;;;19.70;73.44
20394;BME280;10356;50.544;9.642;2023-07-31T08:48:20;97854.59;;;19.43;75.59
20394;BME280;10356;50.544;9.642;2023-07-31T08:50:47;97863.84;;;19.24;77.94
20394;BME280;10356;50.544;9.642;2023-07-31T08:53:15;97858.38;;;19.11;80.09
20394;BME280;10356;50.544;9.642;2023-07-31T08:55:42;97843.78;;;19.01;80.77
20394;BME280;10356;50.544;9.642;2023-07-31T08:58:12;97834.25;;;19.14;81.70
20394;BME280;10356;50.544;9.642;2023-07-31T09:00:39;97833.97;;;19.24;81.27
20394;BME280;10356;50.544;9.642;2023-07-31T09:03:09;97830.16;;;19.41;80.51
20394;BME280;10356;50.544;9.642;2023-07-31T09:05:42;97829.69;;;19.38;79.72
20394;BME280;10356;50.544;9.642;2023-07-31T09:08:09;97829.34;;;19.41;77.56
20394;BME280;10356;50.544;9.642;2023-07-31T09:10:40;97828.94;;;19.44;77.56
20394;BME280;10356;50.544;9.642;2023-07-31T09:13:07;97827.41;;;19.49;76.62
20394;BME280;10356;50.544;9.642;2023-07-31T09:15:35;97836.75;;;19.66;75.74
20394;BME280;10356;50.544;9.642;2023-07-31T09:18:02;97835.06;;;19.80;74.68
20394;BME280;10356;50.544;9.642;2023-07-31T09:20:30;97828.47;;;19.90;73.67
20394;BME280;10356;50.544;9.642;2023-07-31T09:22:57;97833.34;;;20.08;73.53
20394;BME280;10356;50.544;9.642;2023-07-31T09:25:31;97821.16;;;20.28;71.32
20394;BME280;10356;50.544;9.642;2023-07-31T09:28:00;97826.00;;;20.46;70.61
20394;BME280;10356;50.544;9.642;2023-07-31T09:30:26;97824.63;;;20.56;70.28
20394;BME280;10356;50.544;9.642;2023-07-31T09:33:00;97813.97;;;20.71;69.76
20394;BME280;10356;50.544;9.642;2023-07-31T09:35:29;97822.63;;;20.86;68.57
20394;BME280;10356;50.544;9.642;2023-07-31T09:37:57;97814.34;;;20.96;68.50
20394;BME280;10356;50.544;9.642;2023-07-31T09:40:25;97809.84;;;21.24;67.51
20394;BME280;10356;50.544;9.642;2023-07-31T09:42:52;97807.28;;;21.37;67.79
20394;BME280;10356;50.544;9.642;2023-07-31T09:45:20;97801.81;;;21.58;67.33
20394;BME280;10356;50.544;9.642;2023-07-31T09:47:47;97799.44;;;21.76;65.72
20394;BME280;10356;50.544;9.642;2023-07-31T09:50:14;97810.03;;;21.76;63.94
20394;BME280;10356;50.544;9.642;2023-07-31T09:52:41;97815.44;;;21.42;63.83
20394;BME280;10356;50.544;9.642;2023-07-31T09:55:08;97815.09;;;21.17;66.40
20394;BME280;10356;50.544;9.642;2023-07-31T09:57:36;97806.78;;;20.92;67.90
20394;BME280;10356;50.544;9.642;2023-07-31T10:00:07;97809.50;;;20.71;70.84
20394;BME280;10356;50.544;9.642;2023-07-31T10:02:36;97800.91;;;20.69;73.91
20394;BME280;10356;50.544;9.642;2023-07-31T10:05:04;97799.94;;;20.70;73.18
20394;BME280;10356;50.544;9.642;2023-07-31T10:07:34;97795.91;;;20.53;73.60
20394;BME280;10356;50.544;9.642;2023-07-31T10:10:04;97805.13;;;20.36;72.97
20394;BME280;10356;50.544;9.642;2023-07-31T10:12:32;97793.81;;;20.21;74.07
20394;BME280;10356;50.544;9.642;2023-07-31T10:15:00;97793.44;;;20.24;73.90
20394;BME280;10356;50.544;9.642;2023-07-31T10:17:26;97799.97;;;20.07;75.51
20394;BME280;10356;50.544;9.642;2023-07-31T10:19:56;97805.19;;;20.00;76.41
20394;BME280;10356;50.544;9.642;2023-07-31T10:22:24;97817.19;;;19.82;79.68
20394;BME280;10356;50.544;9.642;2023-07-31T10:24:52;97810.59;;;19.71;79.82
20394;BME280;10356;50.544;9.642;2023-07-31T10:27:20;97821.19;;;19.57;79.83
20394;BME280;10356;50.544;9.642;2023-07-31T10:29:47;97808.84;;;19.64;83.26
20394;BME280;10356;50.544;9.642;2023-07-31T10:32:15;97822.47;;;19.82;83.16
20394;BME280;10356;50.544;9.642;2023-07-31T10:34:43;97810.91;;;20.04;82.88
20394;BME280;10356;50.544;9.642;2023-07-31T10:37:24;97806.00;;;20.01;80.97
20394;BME280;10356;50.544;9.642;2023-07-31T10:39:59;97806.31;;;20.13;81.95
20394;BME280;10356;50.544;9.642;2023-07-31T10:42:33;97807.34;;;20.12;80.50
20394;BME280;10356;50.544;9.642;2023-07-31T10:45:02;97808.53;;;20.09;79.78
20394;BME280;10356;50.544;9.642;2023-07-31T10:47:28;97805.25;;;20.07;80.41
20394;BME280;10356;50.544;9.642;2023-07-31T10:50:13;97797.06;;;20.02;80.12
20394;BME280;10356;50.544;9.642;2023-07-31T10:52:44;97799.34;;;20.05;81.14
20394;BME280;10356;50.544;9.642;2023-07-31T10:55:28;97798.22;;;19.93;80.14
20394;BME280;10356;50.544;9.642;2023-07-31T10:57:56;97799.34;;;20.05;80.94
20394;BME280;10356;50.544;9.642;2023-07-31T11:00:25;97792.00;;;20.22;80.42
20394;BME280;10356;50.544;9.642;2023-07-31T11:02:57;97783.97;;;20.36;80.31
20394;BME280;10356;50.544;9.642;2023-07-31T11:05:45;97795.44;;;20.43;78.51
20394;BME280;10356;50.544;9.642;2023-07-31T11:08:15;97786.03;;;20.41;79.21
20394;BME280;10356;50.544;9.642;2023-07-31T11:10:42;97790.50;;;20.40;79.23
20394;BME280;10356;50.544;9.642;2023-07-31T11:13:09;97785.31;;;20.53;79.12
20394;BME280;10356;50.544;9.642;2023-07-31T11:15:36;97784.56;;;20.59;78.53
20394;BME280;10356;50.544;9.642;2023-07-31T11:18:03;97778.53;;;20.72;77.49
20394;BME280;10356;50.544;9.642;2023-07-31T11:20:31;97780.41;;;21.06;77.89
20394;BME280;10356;50.544;9.642;2023-07-31T11:22:59;97780.38;;;21.46;75.16
20394;BME280;10356;50.544;9.642;2023-07-31T11:25:28;97772.81;;;22.04;72.13
20394;BME280;10356;50.544;9.642;2023-07-31T11:27:55;97763.63;;;22.52;67.77
20394;BME280;10356;50.544;9.642;2023-07-31T11:30:21;97763.41;;;22.67;66.90
20394;BME280;10356;50.544;9.642;2023-07-31T11:32:48;97760.34;;;22.43;67.04
20394;BME280;10356;50.544;9.642;2023-07-31T11:35:15;97759.91;;;21.94;69.35
20394;BME280;10356;50.544;9.642;2023-07-31T11:37:42;97753.78;;;21.87;70.48
20394;BME280;10356;50.544;9.642;2023-07-31T11:40:10;97756.56;;;21.66;69.03
20394;BME280;10356;50.544;9.642;2023-07-31T11:42:38;97752.28;;;21.71;70.57
20394;BME280;10356;50.544;9.642;2023-07-31T11:45:06;97748.22;;;21.69;71.24
20394;BME280;10356;50.544;9.642;2023-07-31T11:47:33;97746.94;;;21.52;71.03
20394;BME280;10356;50.544;9.642;2023-07-31T11:50:01;97747.19;;;21.70;71.45
20394;BME280;10356;50.544;9.642;2023-07-31T11:52:30;97734.41;;;21.87;69.39
20394;BME280;10356;50.544;9.642;2023-07-31T11:54:59;97731.16;;;22.17;68.16
20394;BME280;10356;50.544;9.642;2023-07-31T11:57:27;97737.50;;;22.29;67.14
20394;BME280;10356;50.544;9.642;2023-07-31T11:59:56;97723.38;;;22.22;67.13
20394;BME280;10356;50.544;9.642;2023-07-31T12:02:24;97718.69;;;22.24;67.90
20394;BME280;10356;50.544;9.642;2023-07-31T12:04:50;97717.66;;;22.51;67.45
20394;BME280;10356;50.544;9.642;2023-07-31T12:07:17;97713.56;;;22.42;67.02
20394;BME280;10356;50.544;9.642;2023-07-31T12:09:53;97717.47;;;22.33;67.88
20394;BME280;10356;50.544;9.642;2023-07-31T12:12:20;97714.22;;;22.05;67.65
20394;BME280;10356;50.544;9.642;2023-07-31T12:14:47;97710.13;;;21.96;68.32
20394;BME280;10356;50.544;9.642;2023-07-31T12:17:18;97710.97;;;22.10;69.80
20394;BME280;10356;50.544;9.642;2023-07-31T12:19:45;97703.38;;;22.07;68.83
20394;BME280;10356;50.544;9.642;2023-07-31T12:22:13;97699.47;;;21.77;69.96
20394;BME280;10356;50.544;9.642;2023-07-31T12:24:42;97682.59;;;21.97;69.76
20394;BME280;10356;50.544;9.642;2023-07-31T12:27:10;97682.97;;;22.33;67.18
20394;BME280;10356;50.544;9.642;2023-07-31T12:29:38;97673.69;;;22.82;65.64
20394;BME280;10356;50.544;9.642;2023-07-31T12:32:05;97681.03;;;23.30;63.66
20394;BME280;10356;50.544;9.642;2023-07-31T12:34:45;97673.69;;;23.26;63.09
20394;BME280;10356;50.544;9.642;2023-07-31T12:37:12;97680.69;;;23.14;61.97
20394;BME280;10356;50.544;9.642;2023-07-31T12:39:38;97674.72;;;23.25;63.92
20394;BME280;10356;50.544;9.642;2023-07-31T12:42:05;97682.53;;;23.13;63.52
20394;BME280;10356;50.544;9.642;2023-07-31T12:44:32;97681.31;;;23.09;63.84
20394;BME280;10356;50.544;9.642;2023-07-31T12:46:58;97675.66;;;23.44;62.73
20394;BME280;10356;50.544;9.642;2023-07-31T12:49:25;97670.09;;;23.52;62.38
20394;BME280;10356;50.544;9.642;2023-07-31T12:51:53;97669.06;;;23.53;61.75
20394;BME280;10356;50.544;9.642;2023-07-31T12:54:20;97665.31;;;23.91;61.28
20394;BME280;10356;50.544;9.642;2023-07-31T12:56:46;97663.38;;;24.05;61.34
20394;BME280;10356;50.544;9.642;2023-07-31T12:59:13;97657.88;;;24.25;60.77
20394;BME280;10356;50.544;9.642;2023-07-31T13:01:39;97666.50;;;23.95;57.63